sensor_id;sensor_type;location;lat;lon;timestamp;pressure;altitude;pressure_sealevel;temperature;humidity
1926;BME280;964;42.606;23.588;2023-05-01T00:01:21;94487.78;;;27.98;30.31
1926;BME280;964;42.606;23.588;2023-05-01T00:03:48;94482.44;;;27.80;30.55
1926;BME280;964;42.606;23.588;2023-05-01T00:06:16;94476.22;;;28.12;30.48
1926;BME280;964;42.606;23.588;2023-05-01T00:08:43;94485.69;;;27.93;30.61
1926;BME280;964;42.606;23.588;2023-05-01T00:11:09;94478.78;;;27.41;31.38
1926;BME280;964;42.606;23.588;2023-05-01T00:13:36;94478.31;;;27.51;31.44
1926;BME280;964;42.606;23.588;2023-05-01T00:16:07;94479.13;;;28.08;30.77
1926;BME280;964;42.606;23.588;2023-05-01T00:18:33;94484.94;;;27.59;30.98
1926;BME280;964;42.606;23.588;2023-05-01T00:21:00;94494.16;;;27.62;31.08
1926;BME280;964;42.606;23.588;2023-05-01T00:23:29;94486.81;;;27.35;31.38
1926;BME280;964;42.606;23.588;2023-05-01T00:25:56;94496.28;;;26.98;31.85
1926;BME280;964;42.606;23.588;2023-05-01T00:28:23;94501.91;;;27.36;31.44
1926;BME280;964;42.606;23.588;2023-05-01T00:30:49;94498.13;;;27.43;31.36
1926;BME280;964;42.606;23.588;2023-05-01T00:33:16;94496.94;;;27.86;30.70
1926;BME280;964;42.606;23.588;2023-05-01T00:35:43;94494.44;;;27.97;30.50
1926;BME280;964;42.606;23.588;2023-05-01T00:38:10;94501.13;;;27.96;30.16
1926;BME280;964;42.606;23.588;2023-05-01T00:40:42;94495.03;;;28.01;30.00
1926;BME280;964;42.606;23.588;2023-05-01T00:43:09;94495.41;;;28.17;29.86
1926;BME280;964;42.606;23.588;2023-05-01T00:45:36;94498.56;;;27.59;30.47
1926;BME280;964;42.606;23.588;2023-05-01T00:48:03;94501.47;;;27.38;30.59
1926;BME280;964;42.606;23.588;2023-05-01T00:50:30;94504.34;;;27.34;30.64
1926;BME280;964;42.606;23.588;2023-05-01T00:52:57;94510.31;;;27.05;31.07
1926;BME280;964;42.606;23.588;2023-05-01T00:55:25;94499.00;;;26.89;31.41
1926;BME280;964;42.606;23.588;2023-05-01T00:57:55;94502.00;;;26.36;32.25
1926;BME280;964;42.606;23.588;2023-05-01T01:00:22;94516.16;;;27.22;31.22
1926;BME280;964;42.606;23.588;2023-05-01T01:02:49;94526.09;;;27.61;30.72
1926;BME280;964;42.606;23.588;2023-05-01T01:05:16;94529.75;;;27.49;30.96
1926;BME280;964;42.606;23.588;2023-05-01T01:07:50;94527.84;;;26.86;31.44
1926;BME280;964;42.606;23.588;2023-05-01T01:10:26;94526.13;;;26.34;32.10
1926;BME280;964;42.606;23.588;2023-05-01T01:13:03;94537.91;;;25.51;33.33
1926;BME280;964;42.606;23.588;2023-05-01T01:15:36;94538.28;;;25.62;33.35
1926;BME280;964;42.606;23.588;2023-05-01T01:18:08;94524.88;;;26.17;32.61
1926;BME280;964;42.606;23.588;2023-05-01T01:20:41;94531.72;;;26.30;32.55
1926;BME280;964;42.606;23.588;2023-05-01T01:23:23;94535.53;;;26.51;32.36
1926;BME280;964;42.606;23.588;2023-05-01T01:26:10;94534.97;;;26.84;31.97
1926;BME280;964;42.606;23.588;2023-05-01T01:31:52;94537.97;;;26.86;31.72
1926;BME280;964;42.606;23.588;2023-05-01T01:34:27;94535.53;;;26.51;31.64
1926;BME280;964;42.606;23.588;2023-05-01T01:37:01;94535.22;;;26.40;31.94
1926;BME280;964;42.606;23.588;2023-05-01T01:39:32;94535.50;;;26.33;32.11
1926;BME280;964;42.606;23.588;2023-05-01T01:42:07;94541.84;;;26.39;32.07
1926;BME280;964;42.606;23.588;2023-05-01T01:44:39;94543.34;;;26.31;32.07
1926;BME280;964;42.606;23.588;2023-05-01T01:47:10;94539.59;;;25.89;32.45
1926;BME280;964;42.606;23.588;2023-05-01T01:49:42;94535.94;;;26.22;32.40
1926;BME280;964;42.606;23.588;2023-05-01T01:52:12;94535.06;;;25.95;32.70
1926;BME280;964;42.606;23.588;2023-05-01T01:54:42;94533.38;;;26.28;32.33
1926;BME280;964;42.606;23.588;2023-05-01T01:57:11;94525.56;;;26.75;31.49
1926;BME280;964;42.606;23.588;2023-05-01T01:59:41;94524.06;;;26.65;31.54
1926;BME280;964;42.606;23.588;2023-05-01T02:02:09;94520.13;;;26.39;31.76
1926;BME280;964;42.606;23.588;2023-05-01T02:04:39;94529.47;;;26.29;32.10
1926;BME280;964;42.606;23.588;2023-05-01T02:07:07;94523.84;;;25.74;32.77
1926;BME280;964;42.606;23.588;2023-05-01T02:09:37;94519.91;;;25.66;33.11
1926;BME280;964;42.606;23.588;2023-05-01T02:12:06;94524.78;;;26.29;32.16
1926;BME280;964;42.606;23.588;2023-05-01T02:14:34;94527.78;;;26.31;32.05
1926;BME280;964;42.606;23.588;2023-05-01T02:17:03;94512.56;;;26.43;31.77
1926;BME280;964;42.606;23.588;2023-05-01T02:19:31;94517.69;;;26.23;31.98
1926;BME280;964;42.606;23.588;2023-05-01T02:22:01;94524.94;;;26.26;32.01
1926;BME280;964;42.606;23.588;2023-05-01T02:24:29;94524.31;;;26.22;32.01
1926;BME280;964;42.606;23.588;2023-05-01T02:27:01;94517.97;;;26.25;31.94
1926;BME280;964;42.606;23.588;2023-05-01T02:29:30;94524.88;;;25.68;32.55
1926;BME280;964;42.606;23.588;2023-05-01T02:31:58;94529.78;;;25.51;33.00
1926;BME280;964;42.606;23.588;2023-05-01T02:34:25;94527.75;;;25.64;32.67
1926;BME280;964;42.606;23.588;2023-05-01T02:36:52;94517.81;;;25.70;32.90
1926;BME280;964;42.606;23.588;2023-05-01T02:39:20;94525.88;;;25.92;32.56
1926;BME280;964;42.606;23.588;2023-05-01T02:41:48;94519.38;;;25.90;32.50
1926;BME280;964;42.606;23.588;2023-05-01T02:44:16;94517.59;;;25.96;32.46
1926;BME280;964;42.606;23.588;2023-05-01T02:46:46;94528.44;;;25.96;32.25
1926;BME280;964;42.606;23.588;2023-05-01T02:49:15;94528.22;;;26.21;31.75
1926;BME280;964;42.606;23.588;2023-05-01T02:51:43;94529.91;;;26.18;31.68
1926;BME280;964;42.606;23.588;2023-05-01T02:54:11;94527.66;;;26.53;31.45
1926;BME280;964;42.606;23.588;2023-05-01T02:56:40;94533.84;;;25.87;32.03
1926;BME280;964;42.606;23.588;2023-05-01T02:59:06;94531.66;;;25.72;32.28
1926;BME280;964;42.606;23.588;2023-05-01T03:01:33;94544.75;;;25.96;32.18
1926;BME280;964;42.606;23.588;2023-05-01T03:04:00;94538.53;;;26.35;31.44
1926;BME280;964;42.606;23.588;2023-05-01T03:06:26;94538.53;;;26.35;31.63
1926;BME280;964;42.606;23.588;2023-05-01T03:08:55;94543.78;;;25.80;32.21
1926;BME280;964;42.606;23.588;2023-05-01T03:11:22;94537.78;;;25.95;32.06
1926;BME280;964;42.606;23.588;2023-05-01T03:13:50;94543.97;;;25.95;31.93
1926;BME280;964;42.606;23.588;2023-05-01T03:16:16;94549.94;;;25.72;32.13
1926;BME280;964;42.606;23.588;2023-05-01T03:18:43;94547.00;;;25.57;32.20
1926;BME280;964;42.606;23.588;2023-05-01T03:21:10;94553.81;;;25.40;32.43
1926;BME280;964;42.606;23.588;2023-05-01T03:23:37;94552.63;;;25.41;32.56
1926;BME280;964;42.606;23.588;2023-05-01T03:26:04;94561.44;;;25.54;32.62
1926;BME280;964;42.606;23.588;2023-05-01T03:28:32;94558.84;;;25.51;32.50
1926;BME280;964;42.606;23.588;2023-05-01T03:31:00;94566.94;;;25.63;32.69
1926;BME280;964;42.606;23.588;2023-05-01T03:33:26;94571.75;;;25.68;32.29
1926;BME280;964;42.606;23.588;2023-05-01T03:36:00;94573.53;;;25.53;32.35
1926;BME280;964;42.606;23.588;2023-05-01T03:38:28;94574.72;;;24.74;33.52
1926;BME280;964;42.606;23.588;2023-05-01T03:40:55;94572.75;;;24.87;33.23
1926;BME280;964;42.606;23.588;2023-05-01T03:43:22;94575.00;;;25.11;33.20
1926;BME280;964;42.606;23.588;2023-05-01T03:45:49;94564.53;;;25.22;33.02
1926;BME280;964;42.606;23.588;2023-05-01T03:48:17;94563.75;;;25.43;32.78
1926;BME280;964;42.606;23.588;2023-05-01T03:50:44;94566.31;;;25.59;32.51
1926;BME280;964;42.606;23.588;2023-05-01T03:53:11;94561.22;;;25.70;32.43
1926;BME280;964;42.606;23.588;2023-05-01T03:55:38;94566.13;;;25.84;32.30
1926;BME280;964;42.606;23.588;2023-05-01T03:58:05;94567.69;;;26.04;32.36
1926;BME280;964;42.606;23.588;2023-05-01T04:00:32;94570.41;;;26.04;32.61
1926;BME280;964;42.606;23.588;2023-05-01T04:02:59;94567.78;;;26.22;32.33
1926;BME280;964;42.606;23.588;2023-05-01T04:05:27;94563.00;;;26.44;32.34
1926;BME280;964;42.606;23.588;2023-05-01T04:07:54;94570.97;;;26.39;32.43
1926;BME280;964;42.606;23.588;2023-05-01T04:10:21;94567.53;;;26.56;32.41
1926;BME280;964;42.606;23.588;2023-05-01T04:12:47;94574.63;;;26.54;32.47
1926;BME280;964;42.606;23.588;2023-05-01T04:15:14;94578.13;;;26.72;32.20
1926;BME280;964;42.606;23.588;2023-05-01T04:17:41;94571.78;;;26.75;32.48
1926;BME280;964;42.606;23.588;2023-05-01T04:20:09;94575.16;;;26.98;32.60
1926;BME280;964;42.606;23.588;2023-05-01T04:22:38;94566.88;;;27.70;31.75
1926;BME280;964;42.606;23.588;2023-05-01T04:25:05;94568.63;;;27.92;31.34
1926;BME280;964;42.606;23.588;2023-05-01T04:27:33;94563.25;;;28.15;31.15
1926;BME280;964;42.606;23.588;2023-05-01T04:29:59;94561.28;;;28.07;31.27
1926;BME280;964;42.606;23.588;2023-05-01T04:32:26;94560.66;;;28.21;30.93
1926;BME280;964;42.606;23.588;2023-05-01T04:34:53;94565.72;;;28.37;31.11
1926;BME280;964;42.606;23.588;2023-05-01T04:37:19;94568.28;;;28.88;30.72
1926;BME280;964;42.606;23.588;2023-05-01T04:39:47;94575.56;;;28.82;30.70
1926;BME280;964;42.606;23.588;2023-05-01T04:42:15;94572.03;;;28.91;30.73
1926;BME280;964;42.606;23.588;2023-05-01T04:44:41;94572.44;;;28.98;30.05
1926;BME280;964;42.606;23.588;2023-05-01T04:47:08;94568.88;;;29.07;29.90
1926;BME280;964;42.606;23.588;2023-05-01T04:49:35;94572.47;;;29.13;30.01
1926;BME280;964;42.606;23.588;2023-05-01T04:52:02;94579.28;;;28.94;30.39
1926;BME280;964;42.606;23.588;2023-05-01T04:54:28;94586.03;;;28.84;30.50
1926;BME280;964;42.606;23.588;2023-05-01T04:56:59;94583.59;;;29.24;29.86
1926;BME280;964;42.606;23.588;2023-05-01T04:59:27;94596.44;;;28.70;30.08
1926;BME280;964;42.606;23.588;2023-05-01T05:01:54;94609.09;;;28.17;30.72
1926;BME280;964;42.606;23.588;2023-05-01T05:04:21;94604.91;;;28.40;30.65
1926;BME280;964;42.606;23.588;2023-05-01T05:06:48;94604.13;;;28.72;30.15
1926;BME280;964;42.606;23.588;2023-05-01T05:09:15;94603.84;;;28.94;29.94
1926;BME280;964;42.606;23.588;2023-05-01T05:11:42;94613.13;;;28.63;29.88
1926;BME280;964;42.606;23.588;2023-05-01T05:14:10;94613.88;;;29.26;29.60
1926;BME280;964;42.606;23.588;2023-05-01T05:16:37;94619.63;;;28.90;30.09
1926;BME280;964;42.606;23.588;2023-05-01T05:19:03;94617.41;;;29.03;29.99
1926;BME280;964;42.606;23.588;2023-05-01T05:21:30;94612.06;;;29.47;29.52
1926;BME280;964;42.606;23.588;2023-05-01T05:23:57;94610.94;;;29.53;29.38
1926;BME280;964;42.606;23.588;2023-05-01T05:26:23;94624.91;;;29.85;29.18
1926;BME280;964;42.606;23.588;2023-05-01T05:28:51;94632.84;;;28.82;30.01
1926;BME280;964;42.606;23.588;2023-05-01T05:31:19;94627.91;;;29.57;29.54
1926;BME280;964;42.606;23.588;2023-05-01T05:33:46;94624.91;;;29.85;29.21
1926;BME280;964;42.606;23.588;2023-05-01T05:36:13;94622.28;;;29.90;28.89
1926;BME280;964;42.606;23.588;2023-05-01T05:38:39;94632.41;;;29.60;29.15
1926;BME280;964;42.606;23.588;2023-05-01T05:41:06;94618.06;;;30.24;28.89
1926;BME280;964;42.606;23.588;2023-05-01T05:43:33;94629.81;;;30.59;28.51
1926;BME280;964;42.606;23.588;2023-05-01T05:46:00;94629.22;;;29.91;28.80
1926;BME280;964;42.606;23.588;2023-05-01T05:48:29;94635.59;;;30.47;27.98
1926;BME280;964;42.606;23.588;2023-05-01T05:50:55;94630.22;;;30.52;27.79
1926;BME280;964;42.606;23.588;2023-05-01T05:53:22;94627.59;;;30.78;27.97
1926;BME280;964;42.606;23.588;2023-05-01T05:55:49;94627.22;;;30.71;27.73
1926;BME280;964;42.606;23.588;2023-05-01T05:58:15;94631.28;;;30.95;27.72
1926;BME280;964;42.606;23.588;2023-05-01T06:00:45;94633.34;;;30.45;28.19
1926;BME280;964;42.606;23.588;2023-05-01T06:03:12;94627.88;;;31.67;26.99
1926;BME280;964;42.606;23.588;2023-05-01T06:05:41;94620.38;;;31.93;27.17
1926;BME280;964;42.606;23.588;2023-05-01T06:08:08;94629.69;;;32.01;26.70
1926;BME280;964;42.606;23.588;2023-05-01T06:10:35;94630.56;;;31.41;27.37
1926;BME280;964;42.606;23.588;2023-05-01T06:13:04;94630.28;;;31.85;27.20
1926;BME280;964;42.606;23.588;2023-05-01T06:15:30;94634.22;;;31.12;28.24
1926;BME280;964;42.606;23.588;2023-05-01T06:17:57;94635.28;;;32.12;26.81
1926;BME280;964;42.606;23.588;2023-05-01T06:20:24;94629.91;;;32.60;26.68
1926;BME280;964;42.606;23.588;2023-05-01T06:22:53;94629.84;;;32.54;26.90
1926;BME280;964;42.606;23.588;2023-05-01T06:25:19;94637.00;;;32.46;26.38
1926;BME280;964;42.606;23.588;2023-05-01T06:27:47;94626.09;;;32.57;26.86
1926;BME280;964;42.606;23.588;2023-05-01T06:30:13;94628.19;;;32.63;27.05
1926;BME280;964;42.606;23.588;2023-05-01T06:32:40;94626.97;;;32.69;26.81
1926;BME280;964;42.606;23.588;2023-05-01T06:35:08;94632.34;;;32.52;26.81
1926;BME280;964;42.606;23.588;2023-05-01T06:37:35;94624.78;;;32.79;26.88
1926;BME280;964;42.606;23.588;2023-05-01T06:40:05;94629.22;;;32.71;27.10
1926;BME280;964;42.606;23.588;2023-05-01T06:42:32;94634.22;;;32.72;26.87
1926;BME280;964;42.606;23.588;2023-05-01T06:44:59;94649.50;;;32.47;27.64
1926;BME280;964;42.606;23.588;2023-05-01T06:47:25;94640.44;;;32.67;27.19
1926;BME280;964;42.606;23.588;2023-05-01T06:49:52;94645.94;;;33.15;26.63
1926;BME280;964;42.606;23.588;2023-05-01T06:52:19;94637.94;;;33.17;26.57
1926;BME280;964;42.606;23.588;2023-05-01T06:54:45;94638.09;;;33.62;26.30
1926;BME280;964;42.606;23.588;2023-05-01T06:57:13;94638.41;;;34.14;25.53
1926;BME280;964;42.606;23.588;2023-05-01T06:59:40;94641.56;;;33.57;27.04
1926;BME280;964;42.606;23.588;2023-05-01T07:02:07;94650.03;;;33.47;26.67
1926;BME280;964;42.606;23.588;2023-05-01T07:04:34;94637.41;;;34.11;25.89
1926;BME280;964;42.606;23.588;2023-05-01T07:07:00;94640.19;;;34.22;26.20
1926;BME280;964;42.606;23.588;2023-05-01T07:09:27;94639.41;;;34.61;25.36
1926;BME280;964;42.606;23.588;2023-05-01T07:11:54;94650.13;;;33.75;26.71
1926;BME280;964;42.606;23.588;2023-05-01T07:14:23;94639.03;;;35.14;25.77
1926;BME280;964;42.606;23.588;2023-05-01T07:16:49;94641.41;;;35.46;25.05
1926;BME280;964;42.606;23.588;2023-05-01T07:19:16;94644.03;;;35.10;24.67
1926;BME280;964;42.606;23.588;2023-05-01T07:21:43;94654.19;;;34.35;26.00
1926;BME280;964;42.606;23.588;2023-05-01T07:24:10;94645.78;;;35.71;24.60
1926;BME280;964;42.606;23.588;2023-05-01T07:26:38;94644.72;;;36.20;23.98
1926;BME280;964;42.606;23.588;2023-05-01T07:29:05;94647.44;;;35.38;25.48
1926;BME280;964;42.606;23.588;2023-05-01T07:31:33;94649.31;;;35.03;24.70
1926;BME280;964;42.606;23.588;2023-05-01T07:34:00;94645.44;;;35.45;24.93
1926;BME280;964;42.606;23.588;2023-05-01T07:36:26;94647.03;;;36.16;23.47
1926;BME280;964;42.606;23.588;2023-05-01T07:38:54;94652.75;;;36.18;23.67
1926;BME280;964;42.606;23.588;2023-05-01T07:41:20;94648.63;;;36.90;23.51
1926;BME280;964;42.606;23.588;2023-05-01T07:43:49;94650.66;;;36.30;23.20
1926;BME280;964;42.606;23.588;2023-05-01T07:46:15;94652.81;;;36.97;22.63
1926;BME280;964;42.606;23.588;2023-05-01T07:48:43;94647.19;;;37.51;22.50
1926;BME280;964;42.606;23.588;2023-05-01T07:51:10;94651.78;;;36.46;23.65
1926;BME280;964;42.606;23.588;2023-05-01T07:53:37;94641.91;;;37.28;22.55
1926;BME280;964;42.606;23.588;2023-05-01T07:56:05;94640.13;;;37.87;22.26
1926;BME280;964;42.606;23.588;2023-05-01T07:58:32;94640.78;;;37.93;21.70
1926;BME280;964;42.606;23.588;2023-05-01T08:01:00;94640.13;;;38.38;21.69
1926;BME280;964;42.606;23.588;2023-05-01T08:03:27;94644.56;;;38.27;21.35
1926;BME280;964;42.606;23.588;2023-05-01T08:05:56;94636.53;;;38.43;21.06
1926;BME280;964;42.606;23.588;2023-05-01T08:08:23;94640.44;;;38.02;21.04
1926;BME280;964;42.606;23.588;2023-05-01T08:10:50;94641.72;;;38.01;21.43
1926;BME280;964;42.606;23.588;2023-05-01T08:13:17;94635.63;;;38.21;21.71
1926;BME280;964;42.606;23.588;2023-05-01T08:15:45;94621.47;;;39.09;20.91
1926;BME280;964;42.606;23.588;2023-05-01T08:18:12;94633.19;;;39.02;21.44
1926;BME280;964;42.606;23.588;2023-05-01T08:20:44;94639.00;;;38.46;21.65
1926;BME280;964;42.606;23.588;2023-05-01T08:23:12;94641.81;;;36.67;23.61
1926;BME280;964;42.606;23.588;2023-05-01T08:25:38;94631.69;;;38.30;22.41
1926;BME280;964;42.606;23.588;2023-05-01T08:28:05;94636.59;;;38.82;22.11
1926;BME280;964;42.606;23.588;2023-05-01T08:30:32;94625.66;;;39.63;21.28
1926;BME280;964;42.606;23.588;2023-05-01T08:32:58;94629.84;;;39.56;20.68
1926;BME280;964;42.606;23.588;2023-05-01T08:35:25;94624.16;;;40.50;20.00
1926;BME280;964;42.606;23.588;2023-05-01T08:37:52;94625.97;;;38.86;19.83
1926;BME280;964;42.606;23.588;2023-05-01T08:40:20;94622.88;;;39.76;18.86
1926;BME280;964;42.606;23.588;2023-05-01T08:42:48;94626.91;;;39.28;19.77
1926;BME280;964;42.606;23.588;2023-05-01T08:45:17;94622.28;;;40.11;20.02
1926;BME280;964;42.606;23.588;2023-05-01T08:47:46;94623.13;;;39.52;20.24
1926;BME280;964;42.606;23.588;2023-05-01T08:50:15;94618.06;;;40.31;19.79
1926;BME280;964;42.606;23.588;2023-05-01T08:52:43;94618.56;;;40.09;19.07
1926;BME280;964;42.606;23.588;2023-05-01T08:55:12;94625.06;;;39.44;20.04
1926;BME280;964;42.606;23.588;2023-05-01T08:57:43;94615.25;;;39.43;20.10
1926;BME280;964;42.606;23.588;2023-05-01T09:00:16;94612.06;;;39.26;20.38
1926;BME280;964;42.606;23.588;2023-05-01T09:02:45;94610.38;;;39.36;19.41
1926;BME280;964;42.606;23.588;2023-05-01T09:05:12;94604.44;;;40.20;19.19
1926;BME280;964;42.606;23.588;2023-05-01T09:07:39;94606.31;;;39.10;19.90
1926;BME280;964;42.606;23.588;2023-05-01T09:10:07;94606.59;;;40.35;19.21
1926;BME280;964;42.606;23.588;2023-05-01T09:12:33;94593.09;;;40.59;18.96
1926;BME280;964;42.606;23.588;2023-05-01T09:15:02;94605.78;;;40.27;18.36
1926;BME280;964;42.606;23.588;2023-05-01T09:17:30;94598.38;;;39.88;18.92
1926;BME280;964;42.606;23.588;2023-05-01T09:19:58;94589.16;;;40.76;19.59
1926;BME280;964;42.606;23.588;2023-05-01T09:22:29;94593.13;;;40.39;19.29
1926;BME280;964;42.606;23.588;2023-05-01T09:24:56;94588.31;;;41.68;18.66
1926;BME280;964;42.606;23.588;2023-05-01T09:27:23;94587.81;;;41.92;18.38
1926;BME280;964;42.606;23.588;2023-05-01T09:29:50;94584.88;;;42.50;17.18
1926;BME280;964;42.606;23.588;2023-05-01T09:32:21;94594.69;;;41.40;18.72
1926;BME280;964;42.606;23.588;2023-05-01T09:34:50;94574.44;;;42.89;16.84
1926;BME280;964;42.606;23.588;2023-05-01T09:37:27;94580.97;;;42.76;17.48
1926;BME280;964;42.606;23.588;2023-05-01T09:40:04;94593.25;;;41.54;18.13
1926;BME280;964;42.606;23.588;2023-05-01T09:42:32;94583.00;;;42.83;17.73
1926;BME280;964;42.606;23.588;2023-05-01T09:45:00;94580.78;;;42.59;17.42
1926;BME280;964;42.606;23.588;2023-05-01T09:47:29;94586.00;;;41.07;18.19
1926;BME280;964;42.606;23.588;2023-05-01T09:49:58;94586.59;;;41.65;17.62
1926;BME280;964;42.606;23.588;2023-05-01T09:52:25;94585.16;;;41.71;17.85
1926;BME280;964;42.606;23.588;2023-05-01T09:55:11;94593.50;;;40.01;19.08
1926;BME280;964;42.606;23.588;2023-05-01T09:57:38;94598.25;;;38.86;20.21
1926;BME280;964;42.606;23.588;2023-05-01T10:00:05;94588.44;;;39.58;19.37
1926;BME280;964;42.606;23.588;2023-05-01T10:02:35;94590.13;;;39.14;19.63
1926;BME280;964;42.606;23.588;2023-05-01T10:05:02;94587.63;;;39.84;19.63
1926;BME280;964;42.606;23.588;2023-05-01T10:07:29;94592.09;;;39.87;19.20
1926;BME280;964;42.606;23.588;2023-05-01T10:09:56;94583.78;;;40.29;19.46
1926;BME280;964;42.606;23.588;2023-05-01T10:12:23;94588.44;;;40.34;18.74
1926;BME280;964;42.606;23.588;2023-05-01T10:14:51;94588.19;;;40.03;19.07
1926;BME280;964;42.606;23.588;2023-05-01T10:17:18;94577.59;;;41.36;18.81
1926;BME280;964;42.606;23.588;2023-05-01T10:19:47;94581.59;;;41.55;19.75
1926;BME280;964;42.606;23.588;2023-05-01T10:22:14;94584.34;;;41.48;19.88
1926;BME280;964;42.606;23.588;2023-05-01T10:24:42;94587.09;;;41.04;20.98
1926;BME280;964;42.606;23.588;2023-05-01T10:27:11;94584.25;;;40.20;22.58
1926;BME280;964;42.606;23.588;2023-05-01T10:29:39;94576.56;;;41.10;23.78
1926;BME280;964;42.606;23.588;2023-05-01T10:32:07;94580.16;;;40.62;21.89
1926;BME280;964;42.606;23.588;2023-05-01T10:34:37;94586.91;;;38.58;20.87
1926;BME280;964;42.606;23.588;2023-05-01T10:37:10;94588.88;;;38.31;21.52
1926;BME280;964;42.606;23.588;2023-05-01T10:39:38;94580.66;;;39.91;20.63
1926;BME280;964;42.606;23.588;2023-05-01T10:42:06;94585.28;;;41.58;20.06
1926;BME280;964;42.606;23.588;2023-05-01T10:44:36;94589.69;;;41.89;20.38
1926;BME280;964;42.606;23.588;2023-05-01T10:50:08;94597.69;;;39.61;19.47
1926;BME280;964;42.606;23.588;2023-05-01T10:55:37;94626.16;;;36.99;23.82
1926;BME280;964;42.606;23.588;2023-05-01T10:58:04;94628.44;;;36.47;23.08
1926;BME280;964;42.606;23.588;2023-05-01T11:00:31;94638.72;;;35.29;23.88
1926;BME280;964;42.606;23.588;2023-05-01T11:03:35;94639.44;;;34.22;25.01
1926;BME280;964;42.606;23.588;2023-05-01T11:06:05;94637.22;;;35.33;24.74
1926;BME280;964;42.606;23.588;2023-05-01T11:08:33;94626.78;;;36.32;23.86
1926;BME280;964;42.606;23.588;2023-05-01T11:14:02;94634.19;;;36.19;27.08
1926;BME280;964;42.606;23.588;2023-05-01T11:16:42;94628.69;;;36.73;24.08
1926;BME280;964;42.606;23.588;2023-05-01T11:19:43;94627.97;;;37.77;24.80
1926;BME280;964;42.606;23.588;2023-05-01T11:21:59;94628.75;;;37.34;24.75
1926;BME280;964;42.606;23.588;2023-05-01T11:24:32;94638.78;;;35.12;25.99
1926;BME280;964;42.606;23.588;2023-05-01T11:26:58;94633.91;;;36.22;25.80
1926;BME280;964;42.606;23.588;2023-05-01T11:29:30;94627.56;;;36.63;25.52
1926;BME280;964;42.606;23.588;2023-05-01T11:31:58;94625.38;;;35.85;24.93
1926;BME280;964;42.606;23.588;2023-05-01T11:34:25;94633.44;;;35.36;22.63
1926;BME280;964;42.606;23.588;2023-05-01T11:36:52;94636.91;;;34.40;24.18
1926;BME280;964;42.606;23.588;2023-05-01T11:39:19;94635.66;;;34.64;24.92
1926;BME280;964;42.606;23.588;2023-05-01T11:41:46;94644.44;;;34.18;24.03
1926;BME280;964;42.606;23.588;2023-05-01T11:44:15;94631.38;;;34.74;23.15
1926;BME280;964;42.606;23.588;2023-05-01T11:46:43;94625.44;;;35.27;23.98
1926;BME280;964;42.606;23.588;2023-05-01T11:49:10;94630.19;;;35.32;22.58
1926;BME280;964;42.606;23.588;2023-05-01T11:51:37;94638.25;;;35.77;22.47
1926;BME280;964;42.606;23.588;2023-05-01T11:54:05;94629.94;;;35.30;23.28
1926;BME280;964;42.606;23.588;2023-05-01T11:56:33;94623.19;;;35.31;23.03
1926;BME280;964;42.606;23.588;2023-05-01T11:59:08;94631.00;;;35.16;21.46
1926;BME280;964;42.606;23.588;2023-05-01T12:01:36;94626.34;;;36.28;21.70
1926;BME280;964;42.606;23.588;2023-05-01T12:04:05;94621.69;;;36.72;20.26
1926;BME280;964;42.606;23.588;2023-05-01T12:06:36;94623.28;;;36.86;19.57
1926;BME280;964;42.606;23.588;2023-05-01T12:09:06;94625.66;;;37.81;19.43
1926;BME280;964;42.606;23.588;2023-05-01T12:11:33;94624.59;;;38.03;20.24
1926;BME280;964;42.606;23.588;2023-05-01T12:14:00;94634.41;;;35.45;21.40
1926;BME280;964;42.606;23.588;2023-05-01T12:16:28;94639.66;;;35.89;20.90
1926;BME280;964;42.606;23.588;2023-05-01T12:18:55;94641.53;;;36.11;21.27
1926;BME280;964;42.606;23.588;2023-05-01T12:21:24;94644.16;;;35.92;20.15
1926;BME280;964;42.606;23.588;2023-05-01T12:23:52;94643.50;;;35.28;21.29
1926;BME280;964;42.606;23.588;2023-05-01T12:26:22;94637.63;;;36.60;21.07
1926;BME280;964;42.606;23.588;2023-05-01T12:28:56;94649.16;;;34.51;21.26
1926;BME280;964;42.606;23.588;2023-05-01T12:31:24;94653.59;;;34.98;21.67
1926;BME280;964;42.606;23.588;2023-05-01T12:33:55;94647.50;;;36.20;21.98
1926;BME280;964;42.606;23.588;2023-05-01T12:36:24;94634.75;;;38.26;20.98
1926;BME280;964;42.606;23.588;2023-05-01T12:38:57;94622.69;;;39.74;20.81
1926;BME280;964;42.606;23.588;2023-05-01T12:41:32;94625.03;;;39.70;20.73
1926;BME280;964;42.606;23.588;2023-05-01T12:43:59;94631.66;;;38.49;20.95
1926;BME280;964;42.606;23.588;2023-05-01T12:46:26;94649.38;;;37.15;21.45
1926;BME280;964;42.606;23.588;2023-05-01T12:48:53;94652.66;;;36.65;22.47
1926;BME280;964;42.606;23.588;2023-05-01T12:51:20;94655.25;;;36.52;23.08
1926;BME280;964;42.606;23.588;2023-05-01T12:53:48;94651.72;;;36.81;21.95
1926;BME280;964;42.606;23.588;2023-05-01T12:56:22;94649.00;;;37.67;21.48
1926;BME280;964;42.606;23.588;2023-05-01T12:58:49;94651.13;;;37.37;21.48
1926;BME280;964;42.606;23.588;2023-05-01T13:01:23;94644.53;;;38.14;21.57
1926;BME280;964;42.606;23.588;2023-05-01T13:03:50;94648.97;;;36.81;21.70
1926;BME280;964;42.606;23.588;2023-05-01T13:06:17;94644.13;;;38.23;20.84
1926;BME280;964;42.606;23.588;2023-05-01T13:08:44;94653.47;;;37.70;20.41
1926;BME280;964;42.606;23.588;2023-05-01T13:11:13;94644.59;;;37.15;19.83
1926;BME280;964;42.606;23.588;2023-05-01T13:13:42;94645.56;;;36.94;21.07
1926;BME280;964;42.606;23.588;2023-05-01T13:16:11;94649.44;;;36.55;20.57
1926;BME280;964;42.606;23.588;2023-05-01T13:18:42;94647.72;;;37.25;20.34
1926;BME280;964;42.606;23.588;2023-05-01T13:21:10;94634.03;;;38.84;19.83
1926;BME280;964;42.606;23.588;2023-05-01T13:23:40;94642.28;;;38.90;19.13
1926;BME280;964;42.606;23.588;2023-05-01T13:26:08;94651.06;;;37.61;19.42
1926;BME280;964;42.606;23.588;2023-05-01T13:28:41;94639.75;;;38.47;19.73
1926;BME280;964;42.606;23.588;2023-05-01T13:31:10;94644.19;;;39.08;19.41
1926;BME280;964;42.606;23.588;2023-05-01T13:33:39;94654.22;;;37.27;19.72
1926;BME280;964;42.606;23.588;2023-05-01T13:36:07;94654.03;;;36.77;20.55
1926;BME280;964;42.606;23.588;2023-05-01T13:38:41;94661.75;;;37.08;20.15
1926;BME280;964;42.606;23.588;2023-05-01T13:41:12;94653.69;;;37.10;20.54